< < Back
Terminal Aerodrome Forecast


Current Version              Previous Versions:   1  2  3  4  5  6  7  8  9  

Terminal Aerodrome Forecast

443
FTUS44 KBMX 202100 AAA
TAFTCL
TAF AMD
KTCL 202126Z 2021/2118 VRB04KT P6SM SCT040
     FM211000 02002KT 5SM BR SCT008 BKN040=

Latest METAR

180
SAUS70 KWBC 202300
MTRTCL
METAR KTCL 202253Z 05003KT 10SM CLR 09/03 A3019 RMK AO2 SLP223
T00940028


USA.gov is the U.S. government's official web portal to all federal, state and local government web resources and services.